Hims, Syria
Current Conditions -  °F | °C
As of 8:00 AM on Tuesday 21 Oct 2014 (Local Time) from OSLK Reporting Station
Few Clouds Few Clouds  
Wind Chill: 59°   Ceiling: Unl
Heat Index: 59°   Visibility: 6mi
Dew Point: 50°   Wind: 5mph
Humidity: 72%   Direction: 60°ENE
Pressure: 29.97"   Gusts: NA
Location:  34.73°N, 36.72°E
Report Text: OSLK 210500Z 06004KT 9999 FEW030 15/10 Q1015
Loading
Personal Weather Stations






























Interactive Weather Map
Tropical Storm Tracking
New forecast layout! Learn more

10-Day Weather Forecast

Advertisements
Track Severe Weather on mobile